Time;durP1;ratioP1;P1;durP2;ratioP2;P2;SDS_P1;SDS_P2;PMS_P1;PMS_P2;Temp;Humidity;BMP_temperature;BMP_pressure;BME280_temperature;BME280_humidity;BME280_pressure;Samples;Min_cycle;Max_cycle;Signal;HPM_P1;HPM_P2
2023/12/24 00:01:35;;;;;;;17.55;3.78;;;8.80;99.90;;;;;;6191136;23;20047;-76
2023/12/24 00:04:00;;;;;;;21.55;3.28;;;8.80;99.90;;;;;;6190913;23;20017;-76
2023/12/24 00:06:27;;;;;;;12.85;2.58;;;8.80;99.90;;;;;;6191005;23;20345;-76
2023/12/24 00:08:53;;;;;;;18.58;2.88;;;8.80;99.90;;;;;;6191059;23;20080;-76
2023/12/24 00:11:19;;;;;;;30.45;3.85;;;8.80;99.90;;;;;;6191006;23;20040;-76
2023/12/24 00:13:44;;;;;;;18.88;3.47;;;8.80;99.90;;;;;;6217898;23;20056;-76
2023/12/24 00:16:10;;;;;;;14.13;2.78;;;8.90;99.90;;;;;;6217916;23;20017;-76
2023/12/24 00:18:36;;;;;;;16.98;2.92;;;8.80;99.90;;;;;;6190980;23;20393;-76
2023/12/24 00:21:01;;;;;;;16.80;3.03;;;8.90;99.90;;;;;;6190839;23;20017;-76
2023/12/24 00:23:27;;;;;;;23.55;3.83;;;8.90;99.90;;;;;;6190743;23;20012;-76
2023/12/24 00:25:53;;;;;;;19.52;4.03;;;8.80;99.90;;;;;;6190845;23;20016;-76
2023/12/24 00:28:18;;;;;;;18.95;2.97;;;8.80;99.90;;;;;;6190838;23;20052;-76
2023/12/24 00:30:50;;;;;;;21.88;3.20;;;8.90;99.90;;;;;;6190879;23;20024;-76
2023/12/24 00:33:16;;;;;;;13.23;2.97;;;8.80;99.90;;;;;;6217434;23;20020;-76
2023/12/24 00:35:41;;;;;;;17.55;3.15;;;8.80;99.90;;;;;;6190747;23;20016;-76
2023/12/24 00:38:07;;;;;;;18.95;5.18;;;8.80;99.90;;;;;;6190693;23;20383;-76
2023/12/24 00:40:33;;;;;;;15.35;3.88;;;8.90;99.90;;;;;;6190783;23;20013;-76
2023/12/24 00:42:59;;;;;;;14.98;3.67;;;8.90;99.90;;;;;;6190812;23;20066;-76
2023/12/24 00:45:24;;;;;;;14.85;2.83;;;8.90;99.90;;;;;;6190298;23;20107;-76
2023/12/24 00:47:50;;;;;;;15.15;4.28;;;8.90;99.90;;;;;;6190725;23;20015;-76
2023/12/24 00:50:16;;;;;;;20.38;3.38;;;8.90;99.90;;;;;;6190617;23;20017;-76
2023/12/24 00:52:41;;;;;;;19.30;3.50;;;8.90;99.90;;;;;;6190624;23;20124;-76
2023/12/24 00:55:07;;;;;;;22.73;4.60;;;8.90;99.90;;;;;;6190579;23;20016;-76
2023/12/24 00:57:33;;;;;;;16.98;3.65;;;8.90;99.90;;;;;;6190557;23;20031;-76
2023/12/24 00:59:59;;;;;;;22.38;3.97;;;8.90;99.90;;;;;;6190361;23;20020;-76
2023/12/24 01:02:24;;;;;;;19.38;4.63;;;8.90;99.90;;;;;;6190494;23;20126;-76
2023/12/24 01:04:50;;;;;;;25.48;4.10;;;8.90;99.90;;;;;;6190385;23;20024;-76
2023/12/24 01:07:16;;;;;;;18.10;4.03;;;8.90;99.90;;;;;;6190471;23;20009;-76
2023/12/24 01:09:42;;;;;;;24.17;4.63;;;8.90;99.90;;;;;;6190443;23;20023;-76
2023/12/24 01:12:07;;;;;;;17.38;4.10;;;8.90;99.90;;;;;;6190464;23;20091;-76
2023/12/24 01:14:35;;;;;;;22.40;3.78;;;8.90;99.90;;;;;;6190427;23;20020;-76
2023/12/24 01:17:00;;;;;;;24.27;4.03;;;8.90;99.90;;;;;;6217282;23;20044;-76
2023/12/24 01:19:27;;;;;;;20.17;4.82;;;8.90;99.90;;;;;;6216966;23;20027;-76
2023/12/24 01:21:55;;;;;;;19.83;3.75;;;8.90;99.90;;;;;;6190312;23;20019;-76
2023/12/24 01:24:21;;;;;;;22.67;3.90;;;8.90;99.90;;;;;;6190176;23;20458;-76
2023/12/24 01:26:46;;;;;;;19.88;3.97;;;8.90;99.90;;;;;;6190233;23;20040;-76
2023/12/24 01:29:12;;;;;;;20.00;3.45;;;8.90;99.90;;;;;;6190283;23;20012;-76
2023/12/24 01:31:38;;;;;;;21.75;4.65;;;8.90;99.90;;;;;;6190295;23;20020;-76
2023/12/24 01:34:04;;;;;;;23.38;4.38;;;8.90;99.90;;;;;;6217088;23;20380;-76
2023/12/24 01:36:29;;;;;;;18.85;3.92;;;8.90;99.90;;;;;;6216830;23;20023;-76
2023/12/24 01:38:55;;;;;;;15.43;3.97;;;8.90;99.90;;;;;;6190121;23;20013;-76
2023/12/24 01:41:21;;;;;;;21.13;4.10;;;8.90;99.90;;;;;;6190148;23;20072;-76
2023/12/24 01:43:47;;;;;;;22.70;4.35;;;8.90;99.90;;;;;;6189807;23;20017;-76
2023/12/24 01:46:22;;;;;;;23.77;4.82;;;8.90;99.90;;;;;;6190044;23;20452;-76
2023/12/24 01:48:50;;;;;;;19.20;3.78;;;9.00;99.90;;;;;;6190017;23;20318;-76
2023/12/24 01:51:18;;;;;;;19.52;4.35;;;9.00;99.90;;;;;;6190009;23;20024;-76
2023/12/24 01:53:44;;;;;;;23.27;4.30;;;9.00;99.90;;;;;;6190035;23;20016;-76
2023/12/24 01:56:10;;;;;;;17.88;3.83;;;9.00;99.90;;;;;;6190032;23;20013;-76
2023/12/24 01:58:36;;;;;;;19.63;4.07;;;9.00;99.90;;;;;;6216481;23;20025;-76
2023/12/24 02:01:02;;;;;;;22.67;4.60;;;9.00;99.90;;;;;;6189876;23;20440;-76
2023/12/24 02:03:28;;;;;;;18.10;4.22;;;9.00;99.90;;;;;;6216447;23;20099;-76
2023/12/24 02:05:55;;;;;;;22.88;4.63;;;9.00;99.90;;;;;;6189859;23;20012;-76
2023/12/24 02:08:21;;;;;;;22.80;4.43;;;9.00;99.90;;;;;;6189898;23;20021;-76
2023/12/24 02:10:50;;;;;;;22.27;4.45;;;9.00;99.90;;;;;;6189847;23;20460;-76
2023/12/24 02:13:17;;;;;;;24.95;5.90;;;9.00;99.90;;;;;;6189458;23;20349;-76
2023/12/24 02:15:45;;;;;;;19.15;4.55;;;9.00;99.90;;;;;;6189832;23;20044;-76
2023/12/24 02:18:11;;;;;;;17.60;4.57;;;9.00;99.90;;;;;;6189831;23;20044;-76
2023/12/24 02:20:37;;;;;;;24.35;4.75;;;9.00;99.90;;;;;;6189696;23;20359;-76
2023/12/24 02:23:03;;;;;;;16.52;3.88;;;9.00;99.90;;;;;;6189790;23;20353;-76
2023/12/24 02:25:29;;;;;;;17.52;4.93;;;9.00;99.90;;;;;;6189627;23;20071;-76
2023/12/24 02:28:00;;;;;;;19.85;5.20;;;9.00;99.90;;;;;;6189567;23;20021;-76
2023/12/24 02:30:35;;;;;;;19.50;3.83;;;9.00;99.90;;;;;;6189642;23;20021;-76
2023/12/24 02:33:06;;;;;;;16.55;4.28;;;9.00;99.90;;;;;;6189662;23;20062;-76
2023/12/24 02:35:33;;;;;;;14.88;3.28;;;9.00;99.90;;;;;;6189726;23;20031;-76
2023/12/24 02:37:59;;;;;;;16.88;3.65;;;9.00;99.90;;;;;;6189598;23;20096;-76
2023/12/24 02:40:24;;;;;;;20.58;3.42;;;9.00;99.90;;;;;;6189650;23;20349;-76
2023/12/24 02:42:50;;;;;;;16.48;3.10;;;9.00;99.90;;;;;;6189670;23;20016;-76
2023/12/24 02:45:16;;;;;;;20.33;3.78;;;9.00;99.90;;;;;;6215927;23;20020;-76
2023/12/24 02:47:42;;;;;;;17.67;3.40;;;9.10;99.90;;;;;;6189623;23;20016;-76
2023/12/24 02:50:08;;;;;;;13.00;4.03;;;9.00;99.90;;;;;;6189422;23;20017;-76
2023/12/24 02:52:33;;;;;;;15.60;3.45;;;9.00;99.90;;;;;;6189512;23;20017;-76
2023/12/24 02:54:59;;;;;;;15.63;3.13;;;9.10;99.90;;;;;;6189538;23;20027;-76
2023/12/24 02:57:31;;;;;;;16.98;3.35;;;9.00;99.90;;;;;;6189434;23;20023;-76
2023/12/24 02:59:56;;;;;;;13.50;3.22;;;9.10;99.90;;;;;;6216540;23;20071;-76
2023/12/24 03:02:22;;;;;;;17.30;3.47;;;9.10;99.90;;;;;;6189509;23;20012;-76
2023/12/24 03:04:48;;;;;;;15.60;3.60;;;9.10;99.90;;;;;;6189321;23;20047;-76
2023/12/24 03:07:13;;;;;;;16.75;3.40;;;9.00;99.90;;;;;;6189492;23;20449;-76
2023/12/24 03:09:39;;;;;;;15.00;3.50;;;9.10;99.90;;;;;;6189377;23;20020;-76
2023/12/24 03:12:05;;;;;;;14.73;2.88;;;9.10;99.90;;;;;;6189341;23;20148;-76
2023/12/24 03:14:31;;;;;;;14.65;3.00;;;9.10;99.90;;;;;;6189459;23;20013;-76
2023/12/24 03:16:57;;;;;;;12.25;3.25;;;9.10;99.90;;;;;;6189384;23;20059;-76
2023/12/24 03:19:22;;;;;;;10.40;2.55;;;9.10;99.90;;;;;;6216289;23;20343;-76
2023/12/24 03:21:48;;;;;;;11.32;2.38;;;9.10;99.90;;;;;;6189432;23;20013;-76
2023/12/24 03:24:16;;;;;;;12.80;2.28;;;9.20;99.90;;;;;;6187579;23;20019;-76
2023/12/24 03:26:42;;;;;;;12.60;2.75;;;9.10;99.90;;;;;;6191478;23;20021;-76
2023/12/24 03:29:12;;;;;;;8.32;2.42;;;9.20;99.90;;;;;;6191423;23;20108;-76
2023/12/24 03:31:37;;;;;;;8.50;2.30;;;9.20;99.90;;;;;;6191323;23;20023;-76
2023/12/24 03:34:03;;;;;;;7.53;2.55;;;9.10;99.90;;;;;;6191432;23;20099;-76
2023/12/24 03:36:28;;;;;;;7.82;2.00;;;9.10;99.90;;;;;;6217884;23;20020;-76
2023/12/24 03:38:54;;;;;;;10.98;2.25;;;9.20;99.90;;;;;;6191452;23;20017;-76
2023/12/24 03:41:20;;;;;;;6.10;1.70;;;9.20;99.90;;;;;;6191311;23;20099;-76
2023/12/24 03:43:48;;;;;;;8.43;2.00;;;9.20;99.90;;;;;;6190908;23;20027;-76
2023/12/24 03:46:19;;;;;;;9.63;2.22;;;9.20;99.90;;;;;;6191118;23;20024;-76
2023/12/24 03:48:44;;;;;;;10.27;2.40;;;9.20;99.90;;;;;;6191133;23;20017;-76
2023/12/24 03:51:11;;;;;;;8.77;2.58;;;9.20;99.90;;;;;;6191238;23;20044;-76
2023/12/24 03:53:37;;;;;;;8.63;2.05;;;9.20;99.90;;;;;;6191606;23;20012;-76
2023/12/24 03:56:04;;;;;;;8.45;2.20;;;9.20;99.90;;;;;;6191125;23;20024;-76
2023/12/24 03:58:29;;;;;;;4.55;2.00;;;9.20;99.90;;;;;;6191031;23;20448;-76
2023/12/24 04:00:56;;;;;;;6.70;1.95;;;9.20;99.90;;;;;;6191073;23;20148;-76
2023/12/24 04:03:21;;;;;;;4.70;2.03;;;9.20;99.90;;;;;;6191018;23;20106;-76
2023/12/24 04:05:47;;;;;;;10.52;2.00;;;9.20;99.90;;;;;;6217985;23;20017;-76
2023/12/24 04:08:16;;;;;;;8.95;2.22;;;9.20;99.90;;;;;;6191758;23;20020;-76
2023/12/24 04:10:43;;;;;;;8.27;2.70;;;9.30;99.90;;;;;;6217602;23;20437;-76
2023/12/24 04:13:09;;;;;;;7.10;1.92;;;9.30;99.90;;;;;;6190914;23;20017;-76
2023/12/24 04:15:34;;;;;;;10.80;2.85;;;9.30;99.90;;;;;;6190913;23;20028;-76
2023/12/24 04:18:01;;;;;;;9.82;2.72;;;9.30;99.90;;;;;;6191005;23;20023;-76
2023/12/24 04:20:26;;;;;;;13.18;2.50;;;9.30;99.90;;;;;;6190889;23;20076;-76
2023/12/24 04:22:52;;;;;;;10.40;2.55;;;9.30;99.90;;;;;;6190908;23;20021;-76
2023/12/24 04:25:24;;;;;;;8.00;2.55;;;9.30;99.90;;;;;;6190731;23;20020;-76
2023/12/24 04:27:50;;;;;;;13.43;3.22;;;9.30;99.90;;;;;;6190764;23;20020;-76
2023/12/24 04:30:15;;;;;;;11.93;3.03;;;9.30;99.90;;;;;;6190872;23;20017;-76
2023/12/24 04:32:44;;;;;;;15.02;3.08;;;9.40;99.90;;;;;;6190741;23;20012;-76
2023/12/24 04:35:10;;;;;;;14.55;4.13;;;9.40;99.90;;;;;;6190683;23;20063;-76
2023/12/24 04:37:36;;;;;;;9.55;2.88;;;9.40;99.90;;;;;;6190397;23;20067;-76
2023/12/24 04:40:01;;;;;;;12.82;3.65;;;9.40;99.90;;;;;;6217634;23;20089;-76
2023/12/24 04:42:27;;;;;;;12.25;4.13;;;9.40;99.90;;;;;;6190816;23;20414;-76
2023/12/24 04:44:53;;;;;;;14.88;4.70;;;9.40;99.90;;;;;;6217002;23;20445;-76
2023/12/24 04:47:18;;;;;;;10.27;3.70;;;9.40;99.90;;;;;;6190657;23;20044;-77
2023/12/24 04:49:47;;;;;;;16.20;4.72;;;9.40;99.90;;;;;;6190611;23;20021;-77
2023/12/24 04:52:12;;;;;;;17.85;4.78;;;9.40;99.90;;;;;;6190581;23;20376;-76
2023/12/24 04:54:38;;;;;;;21.25;4.85;;;9.40;99.90;;;;;;6190572;23;20017;-76
2023/12/24 04:57:04;;;;;;;22.02;5.30;;;9.40;99.90;;;;;;6190594;23;20071;-76
2023/12/24 04:59:30;;;;;;;28.38;5.47;;;9.50;99.90;;;;;;6217449;23;20071;-76
2023/12/24 05:01:56;;;;;;;20.77;5.32;;;9.40;99.90;;;;;;6190500;23;20381;-76
2023/12/24 05:04:21;;;;;;;21.67;5.63;;;9.40;99.90;;;;;;6190293;23;20449;-76
2023/12/24 05:06:47;;;;;;;23.52;6.05;;;9.40;99.90;;;;;;6190530;23;20043;-76
2023/12/24 05:09:13;;;;;;;23.83;5.10;;;9.50;99.90;;;;;;6190517;23;20024;-76
2023/12/24 05:11:42;;;;;;;24.58;4.32;;;9.40;99.90;;;;;;6190394;23;20349;-77
2023/12/24 05:14:07;;;;;;;25.85;4.82;;;9.40;99.90;;;;;;6190327;23;20043;-77
2023/12/24 05:16:33;;;;;;;28.25;4.65;;;9.50;99.90;;;;;;6190387;23;20365;-77
2023/12/24 05:18:59;;;;;;;18.95;3.92;;;9.50;99.90;;;;;;6190365;23;20031;-76
2023/12/24 05:21:29;;;;;;;22.75;5.43;;;9.50;99.90;;;;;;6190279;23;20417;-76
2023/12/24 05:23:55;;;;;;;21.17;4.13;;;9.50;99.90;;;;;;6190143;23;20508;-76
2023/12/24 05:26:21;;;;;;;28.30;4.00;;;9.50;99.90;;;;;;6190387;23;20016;-76
2023/12/24 05:28:56;;;;;;;21.15;4.03;;;9.50;99.90;;;;;;6190215;23;20384;-76
2023/12/24 05:31:21;;;;;;;27.20;4.40;;;9.50;99.90;;;;;;6190321;23;20065;-76
2023/12/24 05:33:47;;;;;;;25.10;4.70;;;9.50;99.90;;;;;;6217122;23;20008;-76
2023/12/24 05:36:14;;;;;;;22.02;3.65;;;9.50;99.90;;;;;;6190228;23;20016;-76
2023/12/24 05:38:40;;;;;;;28.45;4.57;;;9.50;99.90;;;;;;6190188;23;20448;-76
2023/12/24 05:41:10;;;;;;;22.00;4.03;;;9.50;99.90;;;;;;6190156;23;20020;-76
2023/12/24 05:43:37;;;;;;;22.67;4.57;;;9.50;99.90;;;;;;6189712;23;20023;-76
2023/12/24 05:46:03;;;;;;;28.25;4.20;;;9.60;99.90;;;;;;6190030;23;20052;-76
2023/12/24 05:48:29;;;;;;;23.67;4.45;;;9.50;99.90;;;;;;6216159;23;20027;-76
2023/12/24 05:50:54;;;;;;;28.25;4.82;;;9.50;99.90;;;;;;6190016;23;20025;-76
2023/12/24 05:53:20;;;;;;;22.45;3.47;;;9.60;99.90;;;;;;6190074;23;20020;-76
2023/12/24 05:55:46;;;;;;;20.48;4.00;;;9.60;99.90;;;;;;6189906;23;20009;-76
2023/12/24 05:58:11;;;;;;;17.23;4.28;;;9.60;99.90;;;;;;6190001;23;20076;-76
2023/12/24 06:00:37;;;;;;;24.65;4.07;;;9.60;99.90;;;;;;6189996;23;20349;-76
2023/12/24 06:03:03;;;;;;;22.13;3.85;;;9.60;99.90;;;;;;6189906;23;20349;-76
2023/12/24 06:05:28;;;;;;;23.25;4.47;;;9.60;99.90;;;;;;6216683;23;20016;-76
2023/12/24 06:07:54;;;;;;;27.00;4.47;;;9.50;99.90;;;;;;6189846;23;20021;-76
2023/12/24 06:10:20;;;;;;;21.40;4.50;;;9.50;99.90;;;;;;6189958;23;20016;-76
2023/12/24 06:12:51;;;;;;;17.38;3.70;;;9.60;99.90;;;;;;6216714;23;20047;-76
2023/12/24 06:15:17;;;;;;;20.58;5.10;;;9.60;99.90;;;;;;6189915;23;20048;-76
2023/12/24 06:17:43;;;;;;;21.08;5.00;;;9.60;99.90;;;;;;6216325;23;20452;-76
2023/12/24 06:20:09;;;;;;;20.42;4.57;;;9.60;99.90;;;;;;6189872;23;20020;-77
2023/12/24 06:22:34;;;;;;;20.70;3.83;;;9.60;99.90;;;;;;6189893;23;20384;-77
2023/12/24 06:25:00;;;;;;;20.83;5.57;;;9.60;99.90;;;;;;6189681;23;20052;-77
2023/12/24 06:27:26;;;;;;;18.23;4.00;;;9.60;99.90;;;;;;6189969;23;20017;-77
2023/12/24 06:29:51;;;;;;;19.02;4.47;;;9.70;99.90;;;;;;6189777;23;20027;-77
2023/12/24 06:32:17;;;;;;;21.02;4.35;;;9.70;99.90;;;;;;6189711;23;20017;-76
2023/12/24 06:34:43;;;;;;;23.73;4.13;;;9.70;99.90;;;;;;6189572;23;20070;-77
2023/12/24 06:37:08;;;;;;;23.17;3.67;;;9.80;99.90;;;;;;6189693;23;20012;-77
2023/12/24 06:39:34;;;;;;;24.27;5.35;;;9.80;99.90;;;;;;6189646;23;20027;-77
2023/12/24 06:41:59;;;;;;;28.00;3.65;;;9.80;99.90;;;;;;6216460;23;20020;-77
2023/12/24 06:44:25;;;;;;;24.65;3.85;;;9.80;99.90;;;;;;6189416;23;20075;-77
2023/12/24 06:46:52;;;;;;;15.02;3.20;;;9.80;99.90;;;;;;6189598;23;20024;-77
2023/12/24 06:49:19;;;;;;;20.67;3.63;;;9.80;99.90;;;;;;6189432;23;20348;-76
2023/12/24 06:51:44;;;;;;;17.40;3.85;;;9.80;99.90;;;;;;6189593;23;20017;-77
2023/12/24 06:54:10;;;;;;;14.93;3.10;;;9.80;99.90;;;;;;6189548;23;20371;-77
2023/12/24 06:56:35;;;;;;;17.15;3.67;;;9.80;99.90;;;;;;6189577;23;20066;-76
2023/12/24 06:59:02;;;;;;;20.08;3.13;;;9.90;99.90;;;;;;6189381;23;20013;-76
2023/12/24 07:01:28;;;;;;;17.20;3.78;;;9.80;99.90;;;;;;6189425;23;20031;-77
2023/12/24 07:03:54;;;;;;;17.38;3.63;;;9.90;99.90;;;;;;6189451;23;20092;-77
2023/12/24 07:06:19;;;;;;;21.38;3.50;;;9.80;99.90;;;;;;6189562;23;20445;-77
2023/12/24 07:08:45;;;;;;;17.50;3.17;;;9.90;99.90;;;;;;6189575;23;20404;-77
2023/12/24 07:11:10;;;;;;;17.48;3.25;;;9.90;99.90;;;;;;6189414;23;20012;-77
2023/12/24 07:13:37;;;;;;;22.95;3.28;;;9.90;99.90;;;;;;6189354;23;20441;-77
2023/12/24 07:16:02;;;;;;;18.75;3.30;;;9.90;99.90;;;;;;6189351;23;20027;-77
2023/12/24 07:18:28;;;;;;;19.20;3.03;;;9.90;99.90;;;;;;6189459;23;20012;-77
2023/12/24 07:20:54;;;;;;;12.65;3.50;;;9.90;99.90;;;;;;6189434;23;20028;-77
2023/12/24 07:23:19;;;;;;;18.38;3.30;;;9.90;99.90;;;;;;6189322;23;20017;-77
2023/12/24 07:25:45;;;;;;;20.95;4.10;;;9.90;99.90;;;;;;6189272;23;20035;-77
2023/12/24 07:28:11;;;;;;;22.73;4.18;;;10.00;99.90;;;;;;6189361;23;20024;-77
2023/12/24 07:30:45;;;;;;;20.30;3.67;;;10.00;99.90;;;;;;6189356;23;20028;-77
2023/12/24 07:33:11;;;;;;;21.30;3.80;;;10.00;99.90;;;;;;6189389;23;20482;-77
2023/12/24 07:35:36;;;;;;;15.40;3.30;;;10.00;99.90;;;;;;6189366;23;20012;-77
2023/12/24 07:38:02;;;;;;;21.77;3.33;;;10.00;99.90;;;;;;6189364;23;20087;-77
2023/12/24 07:40:28;;;;;;;21.55;3.95;;;10.00;99.90;;;;;;6189217;23;20024;-77
2023/12/24 07:42:53;;;;;;;18.05;3.97;;;10.00;99.90;;;;;;6189292;23;20021;-76
2023/12/24 07:45:22;;;;;;;17.77;3.10;;;10.00;99.90;;;;;;6189082;23;20143;-77
2023/12/24 07:47:47;;;;;;;22.60;3.78;;;10.00;99.90;;;;;;6189362;23;20021;-77
2023/12/24 07:50:13;;;;;;;17.30;3.00;;;10.00;99.90;;;;;;6189241;23;20024;-77
2023/12/24 07:52:39;;;;;;;21.35;3.30;;;10.00;99.90;;;;;;6189301;23;20023;-77
2023/12/24 07:55:05;;;;;;;18.00;3.28;;;10.10;99.90;;;;;;6189265;23;20020;-77
2023/12/24 07:57:30;;;;;;;22.02;3.60;;;10.10;99.90;;;;;;6189183;23;20013;-76
2023/12/24 07:59:56;;;;;;;23.13;3.35;;;10.10;99.90;;;;;;6189209;23;20028;-77
2023/12/24 08:02:21;;;;;;;24.30;4.90;;;10.10;99.90;;;;;;6189148;23;20017;-77
2023/12/24 08:04:49;;;;;;;16.63;3.97;;;10.10;99.90;;;;;;6189044;23;20025;-77
2023/12/24 08:07:15;;;;;;;26.83;3.70;;;10.10;99.90;;;;;;6189141;23;20075;-77
2023/12/24 08:09:41;;;;;;;17.58;3.03;;;10.10;99.90;;;;;;6189109;23;20099;-77
2023/12/24 08:12:07;;;;;;;24.13;3.65;;;10.10;99.90;;;;;;6190138;23;20017;-77
2023/12/24 08:14:32;;;;;;;15.32;3.25;;;10.10;99.90;;;;;;6190216;23;20491;-77
2023/12/24 08:16:58;;;;;;;21.58;4.40;;;10.10;99.90;;;;;;6190759;23;20055;-77
2023/12/24 08:19:23;;;;;;;19.80;3.78;;;10.10;99.90;;;;;;6190928;23;20024;-77
2023/12/24 08:21:49;;;;;;;18.90;4.10;;;10.10;99.90;;;;;;6190813;23;20040;-77
2023/12/24 08:24:15;;;;;;;27.23;3.58;;;10.20;99.90;;;;;;6190758;23;20028;-77
2023/12/24 08:26:41;;;;;;;20.30;3.60;;;10.20;99.90;;;;;;6190848;23;20019;-77
2023/12/24 08:29:07;;;;;;;21.88;4.28;;;10.20;99.90;;;;;;6190774;23;20467;-77
2023/12/24 08:31:33;;;;;;;25.85;3.65;;;10.20;99.90;;;;;;6190690;23;20017;-77
2023/12/24 08:33:58;;;;;;;14.50;3.67;;;10.20;99.90;;;;;;6190658;23;20440;-77
2023/12/24 08:36:24;;;;;;;16.60;3.47;;;10.30;99.90;;;;;;6190808;23;20020;-77
2023/12/24 08:38:49;;;;;;;18.40;2.97;;;10.30;99.90;;;;;;6190807;23;20020;-77
2023/12/24 08:41:15;;;;;;;11.00;3.70;;;10.30;99.90;;;;;;6190613;23;20040;-76
2023/12/24 08:43:41;;;;;;;22.20;3.60;;;10.30;99.90;;;;;;6190312;23;20318;-76
2023/12/24 08:46:07;;;;;;;25.63;4.05;;;10.30;99.90;;;;;;6190669;23;20017;-76
2023/12/24 08:48:33;;;;;;;20.95;4.13;;;10.30;99.90;;;;;;6190515;23;20459;-77
2023/12/24 08:51:01;;;;;;;20.13;3.78;;;10.30;99.90;;;;;;6190593;23;20021;-77
2023/12/24 08:53:26;;;;;;;22.58;3.53;;;10.30;99.90;;;;;;6190470;23;20023;-78
2023/12/24 08:55:52;;;;;;;22.30;3.75;;;10.30;99.90;;;;;;6190551;23;20052;-77
2023/12/24 08:58:18;;;;;;;22.20;3.63;;;10.30;99.90;;;;;;6190495;23;20444;-78
2023/12/24 09:00:43;;;;;;;22.23;3.55;;;10.30;99.90;;;;;;6190458;23;20016;-78
2023/12/24 09:03:09;;;;;;;27.17;4.57;;;10.30;99.90;;;;;;6190515;23;20024;-79
2023/12/24 09:05:35;;;;;;;21.08;3.55;;;10.40;99.90;;;;;;6190361;23;20023;-79
2023/12/24 09:08:01;;;;;;;23.38;4.72;;;10.40;99.90;;;;;;6217245;23;20016;-78
2023/12/24 09:10:27;;;;;;;19.23;3.90;;;10.40;99.90;;;;;;6190257;23;20392;-79
2023/12/24 09:12:52;;;;;;;27.25;4.35;;;10.40;99.90;;;;;;6190212;23;20017;-78
2023/12/24 09:15:18;;;;;;;19.85;3.63;;;10.40;99.90;;;;;;6189872;23;20017;-78
2023/12/24 09:17:43;;;;;;;22.17;4.20;;;10.40;99.90;;;;;;6190083;23;20027;-77
2023/12/24 09:20:10;;;;;;;18.95;3.53;;;10.40;99.90;;;;;;6190274;23;20027;-78
2023/12/24 09:22:35;;;;;;;12.52;3.08;;;10.40;99.90;;;;;;6190187;23;20044;-79
2023/12/24 09:25:01;;;;;;;27.88;5.07;;;10.40;99.90;;;;;;6188901;23;20055;-79
2023/12/24 09:27:26;;;;;;;20.52;3.80;;;10.40;99.90;;;;;;6190072;23;20020;-78
2023/12/24 09:29:52;;;;;;;19.10;3.95;;;10.50;99.90;;;;;;6189950;23;20017;-78
2023/12/24 09:32:18;;;;;;;16.95;3.13;;;10.50;99.90;;;;;;6190024;23;20061;-78
2023/12/24 09:34:44;;;;;;;19.30;3.53;;;10.50;99.90;;;;;;6189794;23;20048;-78
2023/12/24 09:37:11;;;;;;;19.08;3.40;;;10.50;99.90;;;;;;6189555;23;20475;-79
2023/12/24 09:39:36;;;;;;;18.08;3.13;;;10.50;99.90;;;;;;6189474;23;20035;-78
2023/12/24 09:42:02;;;;;;;19.10;3.45;;;10.50;99.90;;;;;;6189674;23;20012;-78
2023/12/24 09:44:28;;;;;;;20.83;3.78;;;10.60;99.90;;;;;;6189037;23;20147;-78
2023/12/24 09:46:54;;;;;;;18.65;3.40;;;10.60;99.90;;;;;;6189454;23;20016;-78
2023/12/24 09:49:20;;;;;;;18.38;2.78;;;10.60;99.90;;;;;;6189664;23;20017;-78
2023/12/24 09:51:46;;;;;;;23.48;3.08;;;10.60;99.90;;;;;;6189278;23;20511;-78
2023/12/24 09:54:12;;;;;;;19.52;3.50;;;10.60;99.90;;;;;;6189552;23;20387;-78
2023/12/24 09:56:38;;;;;;;20.08;3.53;;;10.60;99.90;;;;;;6216294;23;20017;-78
2023/12/24 09:59:04;;;;;;;18.38;2.85;;;10.70;99.90;;;;;;6189399;23;20028;-78
2023/12/24 10:01:40;;;;;;;13.45;2.97;;;10.70;99.90;;;;;;6189443;23;20344;-79
2023/12/24 10:04:05;;;;;;;23.50;3.28;;;10.70;99.90;;;;;;6189292;23;20020;-79
2023/12/24 10:06:31;;;;;;;21.38;3.00;;;10.70;99.90;;;;;;6189240;23;20024;-79
2023/12/24 10:08:57;;;;;;;21.27;3.95;;;10.70;99.90;;;;;;6189162;23;20013;-79
2023/12/24 10:11:25;;;;;;;19.98;2.90;;;10.80;99.90;;;;;;6188942;23;20372;-79
2023/12/24 10:13:59;;;;;;;14.85;2.40;;;10.80;99.90;;;;;;6189311;23;20063;-79
2023/12/24 10:16:26;;;;;;;18.45;3.30;;;10.80;99.90;;;;;;6189293;23;20058;-80
2023/12/24 10:18:53;;;;;;;15.43;2.55;;;10.90;99.90;;;;;;6189529;23;20021;-77
2023/12/24 10:21:19;;;;;;;9.68;2.75;;;10.90;99.90;;;;;;6216387;23;20075;-76
2023/12/24 10:23:45;;;;;;;11.50;1.85;;;10.90;99.90;;;;;;6216212;23;20102;-77
2023/12/24 10:26:14;;;;;;;16.95;3.08;;;10.90;99.90;;;;;;6189420;23;20020;-76
2023/12/24 10:28:48;;;;;;;10.85;2.38;;;11.00;99.90;;;;;;6189451;23;20020;-76
2023/12/24 10:31:14;;;;;;;12.38;2.10;;;11.00;99.90;;;;;;6189475;23;20017;-77
2023/12/24 10:33:40;;;;;;;15.77;2.67;;;11.00;99.90;;;;;;6189126;23;20437;-77
2023/12/24 10:36:07;;;;;;;14.65;2.10;;;11.00;99.90;;;;;;6189256;23;20029;-77
2023/12/24 10:38:34;;;;;;;18.08;3.03;;;11.00;99.90;;;;;;6189359;23;20054;-77
2023/12/24 10:41:00;;;;;;;18.50;4.40;;;11.10;99.90;;;;;;6189244;23;20322;-77
2023/12/24 10:43:26;;;;;;;15.35;2.83;;;11.10;99.90;;;;;;6189174;23;20017;-77
2023/12/24 10:45:52;;;;;;;12.88;2.53;;;11.10;99.90;;;;;;6189161;23;20021;-80
2023/12/24 10:48:19;;;;;;;17.63;3.35;;;11.10;99.90;;;;;;6189213;23;20065;-77
2023/12/24 10:50:45;;;;;;;16.38;2.80;;;11.20;99.90;;;;;;6189193;23;20024;-78
2023/12/24 10:53:11;;;;;;;16.17;2.90;;;11.20;99.90;;;;;;6215717;23;20087;-78
2023/12/24 10:55:40;;;;;;;14.35;1.80;;;11.20;99.90;;;;;;6189254;23;20086;-77
2023/12/24 10:58:31;;;;;;;11.70;3.42;;;11.20;99.90;;;;;;6189292;23;20087;-77
2023/12/24 11:01:07;;;;;;;14.27;2.53;;;11.20;99.90;;;;;;6189289;23;20060;-78
2023/12/24 11:03:43;;;;;;;14.40;2.33;;;11.20;99.90;;;;;;6189139;23;20433;-77
2023/12/24 11:06:09;;;;;;;16.48;2.40;;;11.30;99.90;;;;;;6189197;23;20020;-78
2023/12/24 11:08:35;;;;;;;13.27;2.70;;;11.20;99.90;;;;;;6188997;23;20024;-78
2023/12/24 11:11:03;;;;;;;17.27;2.28;;;11.20;99.90;;;;;;6189043;23;20020;-78
2023/12/24 11:13:32;;;;;;;10.95;2.50;;;11.20;99.90;;;;;;6215664;23;20027;-77
2023/12/24 11:15:59;;;;;;;14.43;3.47;;;11.20;99.90;;;;;;6215865;23;20048;-78
2023/12/24 11:18:46;;;;;;;14.18;2.70;;;11.20;99.90;;;;;;6189146;23;20518;-77
2023/12/24 11:21:15;;;;;;;12.25;2.10;;;11.20;99.90;;;;;;6188999;23;20043;-78
2023/12/24 11:23:42;;;;;;;16.67;3.30;;;11.20;99.90;;;;;;6188841;23;20052;-78
2023/12/24 11:26:26;;;;;;;14.77;2.45;;;11.20;99.90;;;;;;6189147;23;20083;-78
2023/12/24 11:28:52;;;;;;;16.45;2.30;;;11.20;99.90;;;;;;6188980;23;20013;-78
2023/12/24 11:31:24;;;;;;;20.48;2.50;;;11.20;99.90;;;;;;6189046;23;20103;-77
2023/12/24 11:33:50;;;;;;;22.30;2.72;;;11.20;99.90;;;;;;6215595;23;20040;-78
2023/12/24 11:36:18;;;;;;;14.63;2.15;;;11.30;99.90;;;;;;6215903;23;20012;-76
2023/12/24 11:38:47;;;;;;;15.85;2.33;;;11.30;99.90;;;;;;6188900;23;20024;-77
2023/12/24 11:41:16;;;;;;;9.70;1.95;;;11.30;99.90;;;;;;6188915;23;20019;-78
2023/12/24 11:44:03;;;;;;;16.95;2.97;;;11.30;99.90;;;;;;6188650;23;20016;-78
2023/12/24 11:46:35;;;;;;;15.25;3.83;;;11.30;99.90;;;;;;6189144;23;20511;-78
2023/12/24 11:49:03;;;;;;;20.17;4.37;;;11.40;99.90;;;;;;6191057;23;20013;-79
2023/12/24 11:51:31;;;;;;;15.23;3.25;;;11.40;99.90;;;;;;6190829;23;20020;-77
2023/12/24 11:54:03;;;;;;;14.40;3.85;;;11.40;99.90;;;;;;6190586;23;20017;-76
2023/12/24 11:56:30;;;;;;;11.55;2.72;;;11.40;99.90;;;;;;6190984;23;20016;-77
2023/12/24 11:58:58;;;;;;;15.85;3.20;;;11.40;99.90;;;;;;6217367;23;20016;-75
2023/12/24 12:01:26;;;;;;;16.55;3.30;;;11.40;99.90;;;;;;6191098;23;20016;-76
2023/12/24 12:03:59;;;;;;;18.30;3.67;;;11.40;99.90;;;;;;6190600;23;20020;-77
2023/12/24 12:06:30;;;;;;;16.52;2.63;;;11.50;99.90;;;;;;6190815;23;20341;-77
2023/12/24 12:08:57;;;;;;;13.93;3.83;;;11.50;99.90;;;;;;6190771;23;20015;-76
2023/12/24 12:11:23;;;;;;;17.13;2.60;;;11.50;99.90;;;;;;6190551;23;20348;-77
2023/12/24 12:13:48;;;;;;;21.15;3.22;;;11.40;99.90;;;;;;6190714;23;20441;-78
2023/12/24 12:16:14;;;;;;;12.98;2.78;;;11.40;99.90;;;;;;6190561;23;20017;-78
2023/12/24 12:18:40;;;;;;;20.77;2.92;;;11.50;99.90;;;;;;6190708;23;20017;-77
2023/12/24 12:21:10;;;;;;;18.08;3.80;;;11.50;99.90;;;;;;6190320;23;20397;-77
2023/12/24 12:23:38;;;;;;;15.52;3.03;;;11.50;99.90;;;;;;6190539;23;20021;-79
2023/12/24 12:26:06;;;;;;;18.38;3.13;;;11.40;99.90;;;;;;6190484;23;20338;-78
2023/12/24 12:28:32;;;;;;;15.18;2.42;;;11.40;99.90;;;;;;6217204;23;20036;-78
2023/12/24 12:30:57;;;;;;;19.10;3.40;;;11.50;99.90;;;;;;6190486;23;20133;-77
2023/12/24 12:33:23;;;;;;;18.27;2.83;;;11.50;99.90;;;;;;6190659;23;20056;-79
2023/12/24 12:35:49;;;;;;;10.75;2.72;;;11.40;99.90;;;;;;6190425;23;20452;-79
2023/12/24 12:38:14;;;;;;;16.70;3.63;;;11.40;99.90;;;;;;6190546;23;20048;-79
2023/12/24 12:40:40;;;;;;;16.42;3.35;;;11.50;99.90;;;;;;6190321;23;20388;-78